Time;durP1;ratioP1;P1;durP2;ratioP2;P2;SDS_P1;SDS_P2;PMS_P1;PMS_P2;Temp;Humidity;BMP_temperature;BMP_pressure;BME280_temperature;BME280_humidity;BME280_pressure;Samples;Min_cycle;Max_cycle;Signal;HPM_P1;HPM_P2
2023/09/01 00:00:43;;;;;;;4.83;3.67;;;;;;;;;;4992176;28;20193;-54
2023/09/01 00:03:09;;;;;;;6.13;4.13;;;14.30;99.90;;;;;;4992154;28;20285;-51
2023/09/01 00:05:36;;;;;;;5.17;4.07;;;14.20;99.90;;;;;;4991942;28;20201;-54
2023/09/01 00:08:02;;;;;;;9.37;4.33;;;13.80;99.90;;;;;;4992061;28;20236;-55
2023/09/01 00:10:28;;;;;;;4.47;3.80;;;14.00;99.90;;;;;;4992251;28;20203;-54
2023/09/01 00:12:54;;;;;;;5.07;3.40;;;14.00;99.90;;;;;;4992010;28;20248;-53
2023/09/01 00:15:20;;;;;;;5.70;3.90;;;14.20;99.90;;;;;;4992011;28;20265;-48
2023/09/01 00:17:45;;;;;;;4.40;3.43;;;14.00;99.90;;;;;;4991957;28;20256;-50
2023/09/01 00:20:11;;;;;;;6.07;3.40;;;13.70;99.90;;;;;;4991895;28;20208;-53
2023/09/01 00:22:37;;;;;;;3.43;2.90;;;;;;;;;;4992110;28;20636;-52
2023/09/01 00:25:03;;;;;;;3.70;3.03;;;13.80;99.90;;;;;;4992027;28;20177;-51
2023/09/01 00:27:29;;;;;;;3.97;3.23;;;13.80;99.90;;;;;;4991690;28;20181;-49
2023/09/01 00:29:54;;;;;;;4.03;3.17;;;14.10;99.90;;;;;;4994630;28;20197;-51
2023/09/01 00:32:20;;;;;;;5.27;3.47;;;13.70;99.90;;;;;;4995679;28;20181;-49
2023/09/01 00:34:46;;;;;;;4.83;2.50;;;;;;;;;;4995441;28;20229;-57
2023/09/01 00:37:11;;;;;;;3.70;2.93;;;13.70;99.90;;;;;;4995332;28;20645;-53
2023/09/01 00:39:37;;;;;;;6.63;3.07;;;14.00;99.90;;;;;;4995522;28;20256;-49
2023/09/01 00:42:03;;;;;;;4.17;3.07;;;14.30;99.90;;;;;;4995387;28;20674;-55
2023/09/01 00:44:28;;;;;;;3.27;2.80;;;13.80;99.90;;;;;;4995440;28;20190;-52
2023/09/01 00:46:54;;;;;;;4.27;3.10;;;;;;;;;;4995132;28;20652;-55
2023/09/01 00:49:20;;;;;;;3.97;3.10;;;14.00;99.90;;;;;;4995288;28;20177;-51
2023/09/01 00:51:47;;;;;;;3.37;3.00;;;13.60;99.90;;;;;;4995242;28;20197;-52
2023/09/01 00:54:13;;;;;;;3.00;2.67;;;;;;;;;;4995205;28;20197;-54
2023/09/01 00:56:39;;;;;;;3.33;3.00;;;14.40;99.90;;;;;;4994853;28;20170;-52
2023/09/01 00:59:05;;;;;;;3.23;2.77;;;14.00;99.90;;;;;;4995184;28;20260;-53
2023/09/01 01:01:32;;;;;;;4.73;3.13;;;14.00;99.90;;;;;;4995089;28;20668;-51
2023/09/01 01:03:58;;;;;;;3.80;3.43;;;14.20;99.90;;;;;;4994982;28;20213;-51
2023/09/01 01:07:06;;;;;;;3.40;3.10;;;14.10;99.90;;;;;;4994719;28;20223;-49
2023/09/01 01:09:35;;;;;;;3.47;3.10;;;13.70;99.90;;;;;;4995047;28;20205;-51
2023/09/01 01:12:00;;;;;;;3.87;3.17;;;14.30;99.90;;;;;;4994803;28;20200;-53
2023/09/01 01:14:34;;;;;;;8.33;3.40;;;13.60;99.90;;;;;;4994710;28;20201;-51
2023/09/01 01:17:00;;;;;;;3.40;3.10;;;13.90;99.90;;;;;;4994599;28;20644;-53
2023/09/01 01:19:38;;;;;;;5.43;3.40;;;13.70;99.90;;;;;;4994795;28;20188;-55
2023/09/01 01:22:05;;;;;;;5.50;3.30;;;13.80;99.90;;;;;;4994690;28;20247;-53
2023/09/01 01:24:32;;;;;;;4.40;3.30;;;14.10;99.90;;;;;;4994683;28;20181;-51
2023/09/01 01:26:58;;;;;;;5.77;3.23;;;;;;;;;;4994308;28;20235;-55
2023/09/01 01:29:25;;;;;;;5.03;3.07;;;;;;;;;;4994610;28;20181;-57
2023/09/01 01:31:52;;;;;;;4.93;3.37;;;14.00;99.90;;;;;;4994446;28;20247;-52
2023/09/01 01:34:28;;;;;;;3.67;3.30;;;13.80;99.90;;;;;;4994452;28;20197;-52
2023/09/01 01:37:14;;;;;;;7.13;4.03;;;14.00;99.90;;;;;;4994254;28;20169;-53
2023/09/01 01:39:41;;;;;;;4.10;3.30;;;14.00;99.90;;;;;;4994182;28;20174;-49
2023/09/01 01:42:15;;;;;;;4.03;3.70;;;14.00;99.90;;;;;;4993797;28;20208;-55
2023/09/01 01:44:51;;;;;;;6.20;4.20;;;13.80;99.90;;;;;;4994388;28;20525;-55
2023/09/01 01:47:20;;;;;;;3.93;3.40;;;13.90;99.90;;;;;;4994079;28;20187;-51
2023/09/01 01:49:45;;;;;;;4.00;3.60;;;13.90;99.90;;;;;;4994073;28;20181;-55
2023/09/01 01:52:11;;;;;;;4.77;3.60;;;;;;;;;;4994370;28;20675;-57
2023/09/01 01:54:37;;;;;;;5.33;3.67;;;;;;;;;;4994039;28;20621;-51
2023/09/01 01:57:03;;;;;;;6.60;3.80;;;13.70;99.90;;;;;;4993769;28;20177;-52
2023/09/01 01:59:28;;;;;;;6.27;3.40;;;14.00;99.90;;;;;;4994051;28;20201;-51
2023/09/01 02:01:54;;;;;;;3.83;3.40;;;13.70;99.90;;;;;;4993935;28;20272;-51
2023/09/01 02:04:20;;;;;;;5.30;3.90;;;;;;;;;;4993910;28;20663;-54
2023/09/01 02:06:46;;;;;;;3.93;3.43;;;;;;;;;;4993607;28;20177;-56
2023/09/01 02:09:14;;;;;;;4.60;3.90;;;13.70;99.90;;;;;;4993957;28;20184;-52
2023/09/01 02:11:39;;;;;;;6.27;4.00;;;14.00;99.90;;;;;;4993818;28;20648;-51
2023/09/01 02:14:05;;;;;;;4.03;3.57;;;13.70;99.90;;;;;;4993731;28;20228;-52
2023/09/01 02:16:31;;;;;;;7.10;3.97;;;14.10;99.90;;;;;;4993440;28;20632;-49
2023/09/01 02:18:57;;;;;;;5.40;3.30;;;14.10;99.90;;;;;;4993602;28;20272;-54
2023/09/01 02:21:24;;;;;;;5.30;3.60;;;14.10;99.90;;;;;;4993576;28;20189;-53
2023/09/01 02:23:50;;;;;;;4.30;3.20;;;14.10;99.90;;;;;;4993639;28;20185;-50
2023/09/01 02:26:23;;;;;;;3.93;3.00;;;14.00;99.90;;;;;;4993257;28;20181;-54
2023/09/01 02:28:49;;;;;;;5.13;2.70;;;14.00;99.90;;;;;;4993518;28;20177;-55
2023/09/01 02:31:16;;;;;;;5.83;3.00;;;14.10;99.90;;;;;;4993233;28;20255;-54
2023/09/01 02:33:42;;;;;;;4.20;3.20;;;14.10;99.90;;;;;;4993258;28;20215;-51
2023/09/01 02:36:28;;;;;;;3.43;2.80;;;13.90;99.90;;;;;;4993208;28;20216;-51
2023/09/01 02:38:54;;;;;;;3.60;2.93;;;14.00;99.90;;;;;;4993292;28;20196;-52
2023/09/01 02:41:20;;;;;;;5.77;2.90;;;13.80;99.90;;;;;;4993307;28;20193;-54
2023/09/01 02:43:46;;;;;;;3.03;2.60;;;13.90;99.90;;;;;;4993146;28;20177;-51
2023/09/01 02:46:12;;;;;;;2.73;2.37;;;14.10;99.90;;;;;;4992882;28;20641;-49
2023/09/01 02:48:39;;;;;;;3.07;2.50;;;13.90;99.90;;;;;;4993176;28;20182;-54
2023/09/01 02:51:05;;;;;;;5.30;2.53;;;13.80;99.90;;;;;;4992975;28;20694;-51
2023/09/01 02:53:31;;;;;;;4.47;2.73;;;13.60;99.90;;;;;;4992903;28;20279;-49
2023/09/01 02:55:56;;;;;;;4.17;2.60;;;13.90;99.90;;;;;;4992682;28;20390;-53
2023/09/01 02:58:22;;;;;;;4.20;2.63;;;;;;;;;;4992873;28;20625;-53
2023/09/01 03:00:49;;;;;;;4.27;2.40;;;;;;;;;;4992905;28;20251;-53
2023/09/01 03:03:15;;;;;;;6.67;2.77;;;;;;;;;;4992840;28;20181;-51
2023/09/01 03:05:41;;;;;;;3.37;2.43;;;;;;;;;;4992596;28;20173;-54
2023/09/01 03:08:07;;;;;;;3.83;3.20;;;;;;;;;;4992850;28;20181;-53
2023/09/01 03:10:33;;;;;;;4.33;3.00;;;;;;;;;;4992717;28;20292;-54
2023/09/01 03:12:59;;;;;;;3.80;3.30;;;;;;;;;;4992615;28;20605;-54
2023/09/01 03:15:24;;;;;;;6.53;3.33;;;13.60;99.90;;;;;;4992609;28;20736;-52
2023/09/01 03:17:50;;;;;;;6.40;3.67;;;13.70;99.90;;;;;;4992537;28;20564;-48
2023/09/01 03:20:16;;;;;;;5.80;3.40;;;13.70;99.90;;;;;;4992579;28;20268;-52
2023/09/01 03:22:41;;;;;;;5.57;4.27;;;13.80;99.90;;;;;;4992736;28;20177;-53
2023/09/01 03:25:09;;;;;;;5.20;4.23;;;13.70;99.90;;;;;;4992514;28;20188;-53
2023/09/01 03:27:39;;;;;;;4.40;4.00;;;13.80;99.90;;;;;;4992293;28;20176;-51
2023/09/01 03:30:06;;;;;;;5.17;4.67;;;13.40;99.90;;;;;;4992344;28;20298;-53
2023/09/01 03:32:33;;;;;;;6.50;4.03;;;;;;;;;;4992517;28;20208;-53
2023/09/01 03:34:59;;;;;;;6.80;4.07;;;13.00;99.90;;;;;;4992377;28;20204;-51
2023/09/01 03:37:24;;;;;;;5.23;3.60;;;13.30;99.90;;;;;;4992193;28;20174;-52
2023/09/01 03:39:50;;;;;;;4.37;3.83;;;13.50;99.90;;;;;;4992332;28;20179;-55
2023/09/01 03:42:16;;;;;;;4.97;3.80;;;13.40;99.90;;;;;;4992321;28;20181;-55
2023/09/01 03:44:42;;;;;;;4.00;3.60;;;;;;;;;;4992415;28;20179;-53
2023/09/01 03:47:09;;;;;;;6.53;3.83;;;13.20;99.90;;;;;;4992083;28;20678;-55
2023/09/01 03:49:35;;;;;;;4.00;3.60;;;13.50;99.90;;;;;;4992360;28;20219;-51
2023/09/01 03:52:01;;;;;;;5.37;4.03;;;;;;;;;;4992265;28;20231;-51
2023/09/01 03:54:27;;;;;;;3.50;3.20;;;;;;;;;;4992157;28;20346;-54
2023/09/01 03:56:53;;;;;;;3.43;3.00;;;;;;;;;;4991941;28;20188;-52
2023/09/01 03:59:19;;;;;;;5.23;3.67;;;13.10;99.90;;;;;;4992279;28;20180;-54
2023/09/01 04:01:46;;;;;;;3.63;3.00;;;13.10;99.90;;;;;;4992195;28;20227;-57
2023/09/01 04:04:12;;;;;;;3.80;3.00;;;13.10;99.90;;;;;;4994037;28;20234;-49
2023/09/01 04:06:39;;;;;;;4.40;3.50;;;12.80;99.90;;;;;;4995900;28;20553;-52
2023/09/01 04:09:05;;;;;;;3.27;2.97;;;;;;;;;;4996043;28;20176;-49
2023/09/01 04:11:31;;;;;;;3.43;2.87;;;13.10;99.90;;;;;;4995995;28;20223;-53
2023/09/01 04:13:57;;;;;;;4.90;3.00;;;12.70;99.90;;;;;;4996008;28;20686;-49
2023/09/01 04:16:23;;;;;;;3.80;3.33;;;;;;;;;;4995723;28;20230;-52
2023/09/01 04:18:49;;;;;;;4.00;2.83;;;13.10;99.90;;;;;;4996024;28;20178;-50
2023/09/01 04:21:15;;;;;;;3.80;3.23;;;13.40;99.90;;;;;;4995846;28;20203;-53
2023/09/01 04:23:40;;;;;;;4.67;3.90;;;13.10;99.90;;;;;;4995748;28;20180;-49
2023/09/01 04:26:07;;;;;;;5.23;3.57;;;13.60;99.90;;;;;;4995451;28;20545;-54
2023/09/01 04:28:33;;;;;;;3.27;2.97;;;12.80;99.90;;;;;;4995691;28;20651;-48
2023/09/01 04:30:59;;;;;;;3.33;2.90;;;13.20;99.90;;;;;;4995535;28;20303;-49
2023/09/01 04:33:26;;;;;;;4.27;3.47;;;13.20;99.90;;;;;;4995598;28;20247;-52
2023/09/01 04:36:05;;;;;;;3.80;3.37;;;13.10;99.90;;;;;;4995416;28;20183;-50
2023/09/01 04:38:31;;;;;;;3.13;2.73;;;;;;;;;;4995515;28;20169;-52
2023/09/01 04:40:57;;;;;;;5.50;3.20;;;13.00;99.90;;;;;;4995506;28;20198;-51
2023/09/01 04:43:27;;;;;;;4.60;3.27;;;13.10;99.90;;;;;;4995475;28;20182;-51
2023/09/01 04:45:53;;;;;;;2.93;2.63;;;13.10;99.90;;;;;;4995148;28;20184;-53
2023/09/01 04:48:20;;;;;;;3.77;3.00;;;13.30;99.90;;;;;;4995435;28;20655;-52
2023/09/01 04:50:46;;;;;;;3.77;3.00;;;12.80;99.90;;;;;;4995137;28;20199;-48
2023/09/01 04:53:12;;;;;;;4.03;3.37;;;13.10;99.90;;;;;;4995157;28;20214;-48
2023/09/01 04:55:37;;;;;;;3.73;3.03;;;;;;;;;;4995139;28;20199;-53
2023/09/01 04:58:03;;;;;;;3.87;3.23;;;13.20;99.90;;;;;;4995135;28;20179;-50
2023/09/01 05:00:29;;;;;;;3.87;3.13;;;13.00;99.90;;;;;;4993941;28;20882;-50
2023/09/01 05:02:54;;;;;;;3.40;3.10;;;12.80;99.90;;;;;;4995125;28;20632;-52
2023/09/01 05:05:20;;;;;;;3.67;2.67;;;;;;;;;;4994937;28;20233;-51
2023/09/01 05:07:46;;;;;;;4.20;3.00;;;;;;;;;;4994736;28;20597;-53
2023/09/01 05:10:12;;;;;;;3.43;3.13;;;;;;;;;;4994914;28;20607;-52
2023/09/01 05:12:38;;;;;;;3.37;3.07;;;;;;;;;;4994936;28;20196;-53
2023/09/01 05:15:05;;;;;;;3.13;2.80;;;13.10;99.90;;;;;;4993559;28;20297;-51
2023/09/01 05:17:31;;;;;;;4.53;4.00;;;;;;;;;;4994516;28;20176;-55
2023/09/01 05:19:57;;;;;;;3.83;3.07;;;13.10;99.90;;;;;;4994721;28;20196;-54
2023/09/01 05:22:23;;;;;;;3.57;3.10;;;12.80;99.90;;;;;;4994673;28;20183;-52
2023/09/01 05:24:49;;;;;;;3.40;3.03;;;;;;;;;;4994679;28;20173;-54
2023/09/01 05:27:18;;;;;;;3.93;3.13;;;;;;;;;;4994560;28;20207;-53
2023/09/01 05:29:44;;;;;;;4.57;3.00;;;13.30;99.90;;;;;;4994443;28;20169;-50
2023/09/01 05:32:10;;;;;;;3.70;3.27;;;13.10;99.90;;;;;;4994637;28;20195;-50
2023/09/01 05:34:36;;;;;;;3.97;3.57;;;;;;;;;;4994364;28;20713;-49
2023/09/01 05:37:02;;;;;;;4.43;3.07;;;;;;;;;;4994215;28;20172;-52
2023/09/01 05:39:27;;;;;;;3.40;3.10;;;;;;;;;;4994638;28;20610;-50
2023/09/01 05:41:54;;;;;;;4.03;3.17;;;;;;;;;;4994372;28;20213;-52
2023/09/01 05:44:20;;;;;;;4.33;3.70;;;;;;;;;;4994386;28;20517;-54
2023/09/01 05:46:46;;;;;;;5.17;3.47;;;;;;;;;;5054830;22;20231;-57
2023/09/01 05:49:12;;;;;;;3.30;3.00;;;;;;;;;;5033698;28;20167;-59
2023/09/01 05:51:37;;;;;;;3.83;3.03;;;13.40;99.90;;;;;;5033402;28;20172;-57
2023/09/01 05:54:03;;;;;;;3.00;2.80;;;13.30;99.90;;;;;;5033484;28;20209;-52
2023/09/01 05:56:29;;;;;;;4.33;3.10;;;13.10;99.90;;;;;;5033113;28;20196;-55
2023/09/01 05:58:54;;;;;;;4.93;3.43;;;13.40;99.90;;;;;;5033463;28;20174;-58
2023/09/01 06:01:20;;;;;;;3.83;3.20;;;;;;;;;;5033350;28;20258;-59
2023/09/01 06:03:46;;;;;;;4.63;3.87;;;13.00;99.90;;;;;;5033365;28;20182;-54
2023/09/01 06:06:11;;;;;;;4.00;3.33;;;13.10;99.90;;;;;;5032837;28;20250;-57
2023/09/01 06:08:37;;;;;;;4.27;3.57;;;12.90;99.90;;;;;;5033286;28;20191;-57
2023/09/01 06:11:04;;;;;;;4.50;3.60;;;13.00;99.90;;;;;;5033236;28;20189;-58
2023/09/01 06:13:29;;;;;;;4.20;3.70;;;13.20;99.90;;;;;;5033136;28;20203;-57
2023/09/01 06:15:55;;;;;;;3.83;3.40;;;;;;;;;;5032759;28;20574;-59
2023/09/01 06:18:21;;;;;;;4.07;3.67;;;;;;;;;;5033058;28;20217;-59
2023/09/01 06:20:47;;;;;;;4.10;3.70;;;13.70;99.90;;;;;;5032945;28;20175;-57
2023/09/01 06:23:12;;;;;;;3.30;3.00;;;12.90;99.90;;;;;;5032982;28;20180;-59
2023/09/01 06:25:38;;;;;;;6.23;3.70;;;;;;;;;;5032763;28;20204;-59
2023/09/01 06:28:04;;;;;;;4.60;3.87;;;13.40;99.90;;;;;;5032407;28;20176;-56
2023/09/01 06:30:30;;;;;;;3.63;3.33;;;;;;;;;;5032850;28;20183;-59
2023/09/01 06:32:56;;;;;;;4.20;3.80;;;;;;;;;;5032694;28;20198;-57
2023/09/01 06:35:21;;;;;;;4.23;3.77;;;13.30;99.90;;;;;;5032445;28;20176;-56
2023/09/01 06:37:47;;;;;;;3.90;3.50;;;13.90;99.90;;;;;;5032560;28;20183;-56
2023/09/01 06:40:12;;;;;;;5.23;3.87;;;13.30;99.90;;;;;;5032703;28;20170;-57
2023/09/01 06:42:38;;;;;;;4.67;3.80;;;;;;;;;;5032642;28;20793;-58
2023/09/01 06:45:05;;;;;;;4.63;3.67;;;;;;;;;;5032506;28;20202;-57
2023/09/01 06:47:30;;;;;;;4.87;3.83;;;;;;;;;;5032276;28;20191;-57
2023/09/01 06:49:56;;;;;;;4.03;3.53;;;;;;;;;;5032365;28;20198;-52
2023/09/01 06:52:22;;;;;;;3.63;3.33;;;13.70;99.90;;;;;;5032471;28;20265;-53
2023/09/01 06:54:47;;;;;;;4.13;3.73;;;13.80;99.90;;;;;;5032257;28;20203;-56
2023/09/01 06:57:13;;;;;;;4.53;3.53;;;14.00;99.90;;;;;;5031626;28;20206;-54
2023/09/01 06:59:39;;;;;;;4.27;3.87;;;;;;;;;;5032430;28;20203;-55
2023/09/01 07:02:05;;;;;;;3.97;3.57;;;;;;;;;;5032321;28;20543;-55
2023/09/01 07:04:30;;;;;;;4.17;3.77;;;13.40;99.90;;;;;;5032165;28;20183;-54
2023/09/01 07:06:58;;;;;;;5.63;4.07;;;;;;;;;;5032008;28;20322;-56
2023/09/01 07:09:23;;;;;;;5.30;4.23;;;;;;;;;;5032323;28;20262;-54
2023/09/01 07:11:49;;;;;;;4.70;4.23;;;;;;;;;;5032093;28;20184;-55
2023/09/01 07:14:15;;;;;;;5.47;4.27;;;13.50;99.90;;;;;;5032034;28;20275;-52
2023/09/01 07:16:41;;;;;;;5.17;3.80;;;14.00;99.90;;;;;;5031720;28;20199;-57
2023/09/01 07:19:06;;;;;;;4.93;3.97;;;14.10;99.90;;;;;;5031941;28;20468;-54
2023/09/01 07:21:32;;;;;;;4.77;4.27;;;;;;;;;;5032042;28;20218;-56
2023/09/01 07:23:58;;;;;;;4.43;3.70;;;;;;;;;;5030493;28;20186;-54
2023/09/01 07:26:24;;;;;;;4.30;3.63;;;;;;;;;;5031249;28;20271;-58
2023/09/01 07:28:50;;;;;;;4.83;3.63;;;;;;;;;;5036630;28;20191;-54
2023/09/01 07:31:16;;;;;;;3.80;3.40;;;;;;;;;;5039015;28;20238;-52
2023/09/01 07:33:42;;;;;;;3.60;3.30;;;14.80;99.90;;;;;;5032781;28;20239;-54
2023/09/01 07:36:11;;;;;;;4.27;3.47;;;14.40;99.90;;;;;;5011519;28;20212;-56
2023/09/01 07:38:40;;;;;;;5.17;3.83;;;14.70;99.90;;;;;;5027085;28;20191;-54
2023/09/01 07:41:08;;;;;;;4.60;3.57;;;14.60;99.90;;;;;;5030614;28;20635;-53
2023/09/01 07:43:34;;;;;;;5.00;4.20;;;15.40;99.90;;;;;;5031490;28;20176;-53
2023/09/01 07:46:00;;;;;;;3.50;3.20;;;14.80;99.90;;;;;;5031161;28;20215;-54
2023/09/01 07:48:26;;;;;;;4.00;3.60;;;14.10;99.90;;;;;;5031392;28;20207;-52
2023/09/01 07:50:52;;;;;;;4.33;3.70;;;14.70;99.90;;;;;;5031556;28;20207;-56
2023/09/01 07:53:17;;;;;;;3.70;3.40;;;14.90;99.90;;;;;;5031591;28;20204;-55
2023/09/01 07:55:43;;;;;;;6.27;3.80;;;;;;;;;;5031229;28;20188;-52
2023/09/01 07:58:09;;;;;;;3.23;2.93;;;14.50;99.90;;;;;;5031658;28;20168;-59
2023/09/01 08:00:37;;;;;;;6.63;3.90;;;14.40;99.90;;;;;;5030936;28;20658;-53
2023/09/01 08:03:03;;;;;;;4.00;3.70;;;14.80;99.90;;;;;;5031590;28;20568;-56
2023/09/01 08:05:28;;;;;;;6.10;3.60;;;14.80;99.90;;;;;;5031304;28;20188;-56
2023/09/01 08:07:54;;;;;;;5.17;3.80;;;;;;;;;;5031377;28;20180;-56
2023/09/01 08:10:20;;;;;;;4.60;3.70;;;;;;;;;;5031436;28;20628;-56
2023/09/01 08:12:46;;;;;;;4.30;3.60;;;;;;;;;;5031264;28;20182;-57
2023/09/01 08:15:12;;;;;;;4.00;3.60;;;15.10;99.90;;;;;;5031071;28;20672;-52
2023/09/01 08:17:37;;;;;;;6.03;3.57;;;14.70;99.90;;;;;;5031495;28;20176;-54
2023/09/01 08:20:04;;;;;;;4.27;3.40;;;14.70;99.90;;;;;;5031432;28;20172;-55
2023/09/01 08:22:31;;;;;;;5.87;3.30;;;15.40;99.90;;;;;;5031489;28;20255;-55
2023/09/01 08:24:57;;;;;;;4.17;3.40;;;;;;;;;;5030730;28;20272;-57
2023/09/01 08:27:22;;;;;;;4.47;3.37;;;15.60;99.90;;;;;;5030975;28;20274;-52
2023/09/01 08:29:48;;;;;;;3.47;3.17;;;15.50;99.90;;;;;;5031229;28;20181;-55
2023/09/01 08:32:13;;;;;;;4.43;3.47;;;16.10;99.90;;;;;;5031321;28;20195;-55
2023/09/01 08:34:39;;;;;;;4.00;3.60;;;;;;;;;;5031121;28;20567;-54
2023/09/01 08:37:05;;;;;;;3.50;3.07;;;;;;;;;;5031005;28;20216;-57
2023/09/01 08:39:32;;;;;;;3.90;3.30;;;17.10;99.90;;;;;;5029304;28;20183;-57
2023/09/01 08:41:58;;;;;;;3.20;2.90;;;;;;;;;;5028998;28;20554;-54
2023/09/01 08:44:27;;;;;;;3.00;2.70;;;17.50;99.90;;;;;;5011381;28;20181;-55
2023/09/01 08:46:53;;;;;;;3.53;3.23;;;17.70;99.90;;;;;;5011061;28;20699;-54
2023/09/01 08:49:19;;;;;;;4.63;2.70;;;17.80;99.90;;;;;;5011222;28;20184;-56
2023/09/01 08:51:52;;;;;;;3.17;2.87;;;17.70;99.90;;;;;;5029517;28;20190;-55
2023/09/01 08:54:18;;;;;;;3.30;2.80;;;17.20;99.90;;;;;;5034685;28;20216;-55
2023/09/01 08:56:44;;;;;;;4.17;2.70;;;;;;;;;;5032806;28;20202;-55
2023/09/01 08:59:09;;;;;;;3.23;2.67;;;17.50;99.90;;;;;;5034411;28;20176;-57
2023/09/01 09:01:37;;;;;;;3.13;2.63;;;18.00;99.90;;;;;;5034022;28;20184;-56
2023/09/01 09:04:03;;;;;;;3.50;3.20;;;17.70;99.90;;;;;;5034509;28;20172;-58
2023/09/01 09:06:33;;;;;;;3.33;3.03;;;18.30;99.90;;;;;;5033893;28;20198;-54
2023/09/01 09:09:14;;;;;;;3.27;2.80;;;18.90;99.90;;;;;;5034342;28;20215;-56
2023/09/01 09:11:55;;;;;;;3.10;2.80;;;18.50;99.90;;;;;;5034069;28;20264;-57
2023/09/01 09:14:21;;;;;;;3.00;2.80;;;18.90;99.90;;;;;;5033668;28;20207;-58
2023/09/01 09:16:53;;;;;;;4.43;3.40;;;19.00;99.90;;;;;;5033835;28;20210;-56
2023/09/01 09:19:19;;;;;;;4.53;3.10;;;20.50;99.90;;;;;;5034203;28;20176;-59
2023/09/01 09:21:45;;;;;;;3.60;3.03;;;19.90;99.90;;;;;;5034011;28;20257;-52
2023/09/01 09:24:11;;;;;;;3.67;2.95;;;20.00;99.90;;;;;;5034105;28;20244;-53
2023/09/01 09:26:36;;;;;;;3.08;2.80;;;20.10;99.90;;;;;;5032748;28;20242;-54
2023/09/01 09:29:06;;;;;;;3.30;3.00;;;20.50;99.90;;;;;;5033863;28;20257;-54
2023/09/01 09:31:36;;;;;;;4.05;2.70;;;21.00;99.90;;;;;;5033742;28;20189;-57
2023/09/01 09:34:16;;;;;;;2.50;2.30;;;21.20;99.90;;;;;;5033392;28;20230;-59
2023/09/01 09:36:43;;;;;;;3.40;2.55;;;20.60;99.90;;;;;;5032966;28;20195;-59
2023/09/01 09:39:30;;;;;;;3.00;2.80;;;20.70;99.90;;;;;;5033860;28;20535;-59
2023/09/01 09:41:59;;;;;;;3.65;2.83;;;;;;;;;;5031806;28;20184;-61
2023/09/01 09:44:33;;;;;;;3.60;3.30;;;21.00;99.90;;;;;;5033001;28;20263;-57
2023/09/01 09:47:00;;;;;;;2.97;2.50;;;20.90;99.90;;;;;;5033378;28;20214;-56
2023/09/01 09:49:28;;;;;;;5.28;2.75;;;21.10;99.90;;;;;;5039892;28;20198;-57
2023/09/01 09:51:55;;;;;;;3.95;3.10;;;;;;;;;;5038980;28;20722;-59
2023/09/01 09:54:21;;;;;;;3.28;2.97;;;21.50;99.90;;;;;;5033414;28;20208;-57
2023/09/01 09:56:49;;;;;;;2.80;2.60;;;21.90;99.90;;;;;;5032637;28;20207;-56
2023/09/01 09:59:23;;;;;;;2.80;2.50;;;22.40;99.90;;;;;;5032120;28;20647;-56
2023/09/01 10:01:49;;;;;;;4.75;2.92;;;22.30;99.90;;;;;;5031687;28;20213;-58
2023/09/01 10:04:17;;;;;;;2.60;2.40;;;22.10;99.90;;;;;;5033273;28;20259;-57
2023/09/01 10:06:44;;;;;;;3.58;2.92;;;22.10;99.90;;;;;;5032870;28;20222;-54
2023/09/01 10:09:11;;;;;;;3.40;2.38;;;22.40;99.90;;;;;;5032992;28;20172;-57
2023/09/01 10:11:37;;;;;;;2.65;2.42;;;22.40;99.90;;;;;;5032505;28;20183;-55
2023/09/01 10:14:04;;;;;;;5.40;3.03;;;22.20;99.90;;;;;;5031445;28;20191;-59
2023/09/01 10:16:30;;;;;;;3.72;3.13;;;22.00;99.90;;;;;;5031954;28;20283;-56
2023/09/01 10:18:56;;;;;;;2.83;2.50;;;22.00;99.90;;;;;;5032603;28;20180;-56
2023/09/01 10:21:22;;;;;;;2.90;2.60;;;;;;;;;;5032693;28;20543;-57
2023/09/01 10:23:48;;;;;;;3.28;2.97;;;22.00;99.90;;;;;;5032845;28;20184;-55
2023/09/01 10:26:24;;;;;;;3.60;3.25;;;22.20;99.90;;;;;;5032175;28;20700;-57
2023/09/01 10:28:53;;;;;;;3.17;2.70;;;22.40;99.90;;;;;;5032323;28;20226;-59
2023/09/01 10:31:23;;;;;;;2.78;2.50;;;21.80;99.90;;;;;;5032552;28;20176;-53
2023/09/01 10:34:12;;;;;;;3.45;2.60;;;21.80;99.90;;;;;;5032542;28;20203;-57
2023/09/01 10:36:58;;;;;;;2.78;2.58;;;21.80;99.90;;;;;;5032015;28;20196;-56
2023/09/01 10:39:29;;;;;;;2.58;2.38;;;22.00;99.90;;;;;;5032295;28;20216;-57
2023/09/01 10:42:07;;;;;;;4.95;2.38;;;21.90;99.90;;;;;;5032345;28;20182;-54
2023/09/01 10:44:39;;;;;;;2.88;2.67;;;21.40;99.90;;;;;;5031455;28;20183;-56
2023/09/01 10:47:30;;;;;;;3.20;2.90;;;21.70;99.90;;;;;;5032021;28;20210;-56
2023/09/01 10:49:57;;;;;;;3.10;2.80;;;22.80;99.90;;;;;;5032430;28;20184;-57
2023/09/01 10:52:29;;;;;;;2.92;2.35;;;23.00;99.90;;;;;;5031929;28;20184;-55
2023/09/01 10:55:05;;;;;;;3.42;2.35;;;22.90;99.90;;;;;;5032944;28;20262;-56
2023/09/01 10:57:41;;;;;;;2.10;1.90;;;22.80;99.90;;;;;;5032118;28;20708;-52
2023/09/01 11:00:30;;;;;;;2.88;2.40;;;22.90;99.90;;;;;;5032544;28;20188;-57
2023/09/01 11:03:30;;;;;;;2.60;2.40;;;22.20;99.90;;;;;;5030981;28;20543;-56
2023/09/01 11:06:05;;;;;;;2.60;2.40;;;21.50;99.90;;;;;;5023609;28;20567;-59
2023/09/01 11:08:32;;;;;;;2.97;2.53;;;21.90;99.90;;;;;;5031856;28;20180;-57
2023/09/01 11:11:09;;;;;;;3.05;2.75;;;21.90;99.90;;;;;;5031747;28;20179;-56
2023/09/01 11:13:35;;;;;;;4.03;2.88;;;21.90;99.90;;;;;;5031727;28;20282;-58
2023/09/01 11:16:08;;;;;;;3.60;2.63;;;22.10;99.90;;;;;;5031623;28;20318;-54
2023/09/01 11:18:34;;;;;;;2.60;2.40;;;;;;;;;;5031860;28;20171;-58
2023/09/01 11:21:01;;;;;;;3.28;2.58;;;;;;;;;;5031881;28;20168;-59
2023/09/01 11:23:30;;;;;;;2.75;2.50;;;24.20;99.90;;;;;;5031887;28;20255;-60
2023/09/01 11:25:59;;;;;;;3.83;2.45;;;25.00;99.90;;;;;;5030741;28;20196;-57
2023/09/01 11:28:28;;;;;;;3.28;2.50;;;24.90;99.90;;;;;;5029127;28;20670;-58
2023/09/01 11:31:02;;;;;;;2.35;2.15;;;24.60;99.90;;;;;;5028015;28;20255;-56
2023/09/01 11:33:33;;;;;;;2.83;2.20;;;24.30;99.90;;;;;;5031952;28;20194;-58
2023/09/01 11:36:12;;;;;;;2.35;2.10;;;24.00;99.90;;;;;;5031851;28;20192;-55
2023/09/01 11:38:38;;;;;;;2.30;2.10;;;23.60;99.90;;;;;;5031194;28;20180;-57
2023/09/01 11:41:08;;;;;;;2.63;2.03;;;23.50;99.90;;;;;;5031335;28;20243;-53
2023/09/01 11:43:34;;;;;;;2.63;2.10;;;;;;;;;;5029984;28;20282;-56
2023/09/01 11:46:00;;;;;;;2.35;2.15;;;26.30;99.90;;;;;;5030666;28;20231;-55
2023/09/01 11:48:28;;;;;;;2.10;1.90;;;27.40;99.90;;;;;;5031339;28;20172;-59
2023/09/01 11:50:54;;;;;;;2.50;2.30;;;25.80;99.90;;;;;;5031193;28;20305;-54
2023/09/01 11:53:25;;;;;;;2.85;2.30;;;25.30;99.90;;;;;;5031007;28;20176;-52
2023/09/01 11:55:51;;;;;;;1.88;1.77;;;25.00;99.90;;;;;;5029333;28;20196;-57
2023/09/01 11:58:17;;;;;;;2.67;2.47;;;24.70;99.90;;;;;;5054587;28;20176;-53
2023/09/01 12:00:43;;;;;;;2.15;1.95;;;23.70;99.90;;;;;;5027288;28;20171;-58
2023/09/01 12:03:10;;;;;;;2.05;1.90;;;23.70;99.90;;;;;;5055766;28;20666;-59
2023/09/01 12:05:38;;;;;;;4.25;1.80;;;23.60;99.90;;;;;;5029964;28;20675;-53
2023/09/01 12:08:06;;;;;;;2.53;1.83;;;23.80;99.90;;;;;;5031388;28;20547;-57
2023/09/01 12:10:32;;;;;;;2.65;1.80;;;23.40;99.90;;;;;;5030673;28;20176;-54
2023/09/01 12:13:16;;;;;;;3.28;1.98;;;24.10;99.90;;;;;;5029327;28;20673;-55
2023/09/01 12:15:59;;;;;;;3.22;2.30;;;24.10;99.90;;;;;;5029584;28;20211;-57
2023/09/01 12:18:35;;;;;;;2.00;1.83;;;24.40;99.90;;;;;;5023571;28;20175;-56
2023/09/01 12:21:05;;;;;;;2.28;2.08;;;24.40;99.90;;;;;;5029658;28;20195;-57
2023/09/01 12:23:37;;;;;;;2.13;1.95;;;25.30;99.90;;;;;;5029407;28;20186;-58
2023/09/01 12:26:03;;;;;;;2.67;2.47;;;24.90;99.90;;;;;;5014860;28;20206;-57
2023/09/01 12:28:30;;;;;;;1.83;1.73;;;25.30;99.90;;;;;;5036000;28;20176;-57
2023/09/01 12:30:56;;;;;;;1.95;1.85;;;26.00;99.90;;;;;;5034438;28;20180;-57
2023/09/01 12:33:23;;;;;;;4.90;1.85;;;25.90;99.90;;;;;;5034625;28;20176;-58
2023/09/01 12:35:49;;;;;;;2.17;1.95;;;25.50;99.90;;;;;;5033189;28;20188;-58
2023/09/01 12:38:15;;;;;;;2.00;1.90;;;24.70;99.90;;;;;;5032335;28;20276;-55
2023/09/01 12:40:41;;;;;;;2.05;1.85;;;;;;;;;;5032847;28;20782;-58
2023/09/01 12:43:07;;;;;;;2.03;1.73;;;;;;;;;;5033468;28;20263;-56
2023/09/01 12:45:33;;;;;;;1.67;1.58;;;24.40;99.90;;;;;;5032429;28;20686;-56
2023/09/01 12:47:59;;;;;;;2.65;2.15;;;24.40;99.90;;;;;;5033457;28;20176;-58
2023/09/01 12:50:26;;;;;;;2.22;2.03;;;23.80;99.90;;;;;;5033275;28;20539;-53
2023/09/01 12:52:53;;;;;;;2.67;2.03;;;23.70;99.90;;;;;;5032689;28;20686;-55
2023/09/01 12:55:19;;;;;;;1.92;1.83;;;;;;;;;;5033063;28;20211;-60
2023/09/01 12:57:44;;;;;;;2.30;1.90;;;23.40;99.90;;;;;;5032952;28;20245;-58
2023/09/01 13:00:11;;;;;;;2.10;1.90;;;23.20;99.90;;;;;;5032453;28;20223;-58
2023/09/01 13:02:37;;;;;;;2.53;2.33;;;23.10;99.90;;;;;;5016891;28;20168;-56
2023/09/01 13:05:03;;;;;;;2.53;2.17;;;23.90;99.90;;;;;;5034233;28;20246;-57
2023/09/01 13:07:29;;;;;;;2.10;1.85;;;;;;;;;;5033940;28;20270;-56
2023/09/01 13:09:55;;;;;;;2.42;2.00;;;;;;;;;;5032939;28;20226;-58
2023/09/01 13:12:21;;;;;;;2.25;1.98;;;;;;;;;;5032998;28;20647;-59
2023/09/01 13:14:48;;;;;;;2.38;1.80;;;;;;;;;;5033976;28;20218;-59
2023/09/01 13:17:14;;;;;;;4.53;2.22;;;;;;;;;;5032410;28;20192;-59